La rose des vents
Donnes mto: Semaine 24/12/07 - 30/12/07 (S 52)
Date Horaire Temp. E. Hum. E. P.atmo. Pluie Vent 1mn Direction Ensoleilleme Ev.Tr. Solaire P. de rose Temp au vent Rafales
24/12/2007 00:00 8,3 C 94 % 1022,6 hPa 0,8 l/m 4,3 km/h (1 Bft) E-NE 0,00 h 0,000 mm 0 W/m 7,4 C 7,9 C 6,2 km/h (2 Bft)
24/12/2007 01:00 8,1 C 95 % 1022,3 hPa 0,6 l/m 2,0 km/h (1 Bft) E-NE 0,00 h 0,000 mm 0 W/m 7,3 C 8,0 C 3,2 km/h (1 Bft)
24/12/2007 02:00 8,1 C 95 % 1022,2 hPa 0,8 l/m 3,4 km/h (1 Bft) E-NE 0,00 h 0,000 mm 0 W/m 7,3 C 7,9 C 5,2 km/h (1 Bft)
24/12/2007 03:00 8,1 C 95 % 1022,2 hPa 1,0 l/m 1,0 km/h (0 Bft) NE 0,00 h 0,000 mm 0 W/m 7,3 C 8,1 C 1,6 km/h (1 Bft)
24/12/2007 04:00 8,4 C 95 % 1021,9 hPa 0,4 l/m 2,6 km/h (1 Bft) NE 0,00 h 0,000 mm 0 W/m 7,7 C 8,3 C 3,9 km/h (1 Bft)
24/12/2007 05:00 8,7 C 95 % 1021,6 hPa 0,0 l/m 2,7 km/h (1 Bft) N-NO 0,00 h 0,000 mm 0 W/m 7,9 C 8,6 C 4,3 km/h (1 Bft)
24/12/2007 06:00 8,3 C 95 % 1021,8 hPa 0,0 l/m 2,2 km/h (1 Bft) E 0,00 h 0,000 mm 0 W/m 7,5 C 8,2 C 3,7 km/h (1 Bft)
24/12/2007 07:00 8,2 C 95 % 1021,8 hPa 0,0 l/m 2,3 km/h (1 Bft) SE 0,00 h 0,000 mm 0 W/m 7,5 C 8,1 C 3,8 km/h (1 Bft)
24/12/2007 08:00 8,3 C 95 % 1022,4 hPa 0,0 l/m 5,6 km/h (1 Bft) SE 0,00 h 0,000 mm 12 W/m 7,5 C 7,6 C 8,7 km/h (2 Bft)
24/12/2007 09:00 8,6 C 95 % 1022,7 hPa 0,0 l/m 5,6 km/h (1 Bft) N-NE 0,00 h 0,000 mm 45 W/m 7,8 C 7,9 C 8,7 km/h (2 Bft)
24/12/2007 10:00 9,3 C 95 % 1023,1 hPa 0,0 l/m 1,3 km/h (1 Bft) NE 0,00 h 0,025 mm 60 W/m 8,6 C 9,3 C 2,3 km/h (1 Bft)
24/12/2007 11:00 9,5 C 94 % 1023,2 hPa 0,0 l/m 2,5 km/h (1 Bft) S-SO 0,00 h 0,025 mm 108 W/m 8,7 C 9,4 C 3,7 km/h (1 Bft)
24/12/2007 12:00 10,5 C 91 % 1022,7 hPa 0,0 l/m 0,3 km/h (0 Bft) S-SO 0,00 h 0,051 mm 138 W/m 9,1 C 10,5 C 1,0 km/h (0 Bft)
24/12/2007 13:00 11,3 C 84 % 1022,0 hPa 0,0 l/m 3,0 km/h (1 Bft) SO 0,12 h 0,076 mm 128 W/m 8,6 C 11,3 C 4,5 km/h (1 Bft)
24/12/2007 14:00 13,1 C 72 % 1021,5 hPa 0,0 l/m 2,3 km/h (1 Bft) S-SE 1,00 h 0,076 mm 255 W/m 8,1 C 13,1 C 4,2 km/h (1 Bft)
24/12/2007 15:00 12,9 C 75 % 1021,4 hPa 0,0 l/m 0,3 km/h (0 Bft) S-SE 0,97 h 0,127 mm 149 W/m 8,5 C 12,9 C 1,6 km/h (1 Bft)
24/12/2007 16:00 11,9 C 80 % 1021,5 hPa 0,0 l/m 0,6 km/h (0 Bft) S-SE 0,67 h 0,076 mm 39 W/m 8,5 C 11,9 C 1,9 km/h (1 Bft)
24/12/2007 17:00 10,3 C 83 % 1022,0 hPa 0,0 l/m 0,6 km/h (0 Bft) S-SE 0,00 h 0,025 mm 5 W/m 7,4 C 10,3 C 1,5 km/h (1 Bft)
24/12/2007 18:00 9,6 C 86 % 1022,2 hPa 0,0 l/m 1,4 km/h (1 Bft) S-SO 0,00 h 0,000 mm 0 W/m 7,3 C 9,6 C 2,5 km/h (1 Bft)
24/12/2007 19:00 9,5 C 88 % 1022,4 hPa 0,0 l/m 2,1 km/h (1 Bft) S-SO 0,00 h 0,025 mm 0 W/m 7,6 C 9,5 C 3,3 km/h (1 Bft)
24/12/2007 20:00 9,5 C 89 % 1022,3 hPa 0,0 l/m 2,9 km/h (1 Bft) S-SO 0,00 h 0,025 mm 0 W/m 7,8 C 9,4 C 4,1 km/h (1 Bft)
24/12/2007 21:00 9,0 C 90 % 1022,2 hPa 0,0 l/m 5,2 km/h (1 Bft) SO 0,00 h 0,025 mm 0 W/m 7,5 C 8,6 C 6,3 km/h (2 Bft)
24/12/2007 22:00 8,7 C 91 % 1022,2 hPa 0,0 l/m 6,2 km/h (2 Bft) O-SO 0,00 h 0,025 mm 0 W/m 7,2 C 7,9 C 7,5 km/h (2 Bft)
24/12/2007 23:00 8,1 C 90 % 1022,5 hPa 0,0 l/m 7,3 km/h (2 Bft) O-NO 0,00 h 0,025 mm 0 W/m 6,5 C 6,9 C 9,0 km/h (2 Bft)
25/12/2007 00:00 7,7 C 89 % 1022,3 hPa 0,0 l/m 5,7 km/h (1 Bft) O-NO 0,00 h 0,025 mm 0 W/m 6,1 C 7,0 C 7,1 km/h (2 Bft)
25/12/2007 01:00 7,5 C 89 % 1022,0 hPa 0,0 l/m 3,4 km/h (1 Bft) O-NO 0,00 h 0,025 mm 0 W/m 5,8 C 7,3 C 4,9 km/h (1 Bft)
25/12/2007 02:00 7,8 C 89 % 1022,1 hPa 0,0 l/m 1,3 km/h (1 Bft) O-NO 0,00 h 0,025 mm 0 W/m 6,1 C 7,8 C 2,1 km/h (1 Bft)
25/12/2007 03:00 7,8 C 88 % 1022,1 hPa 0,2 l/m 3,4 km/h (1 Bft) O-NO 0,00 h 0,000 mm 0 W/m 6,0 C 7,6 C 4,8 km/h (1 Bft)
25/12/2007 04:00 7,0 C 88 % 1021,8 hPa 0,0 l/m 3,5 km/h (1 Bft) O-NO 0,00 h 0,025 mm 0 W/m 5,2 C 6,9 C 5,4 km/h (1 Bft)
25/12/2007 05:00 7,5 C 89 % 1021,5 hPa 0,0 l/m 2,3 km/h (1 Bft) NO 0,00 h 0,025 mm 0 W/m 5,9 C 7,4 C 4,6 km/h (1 Bft)
25/12/2007 06:00 8,0 C 89 % 1021,2 hPa 0,0 l/m 4,5 km/h (1 Bft) O-NO 0,00 h 0,025 mm 0 W/m 6,2 C 7,6 C 6,8 km/h (2 Bft)
25/12/2007 07:00 8,1 C 87 % 1021,5 hPa 0,0 l/m 3,9 km/h (1 Bft) O-NO 0,00 h 0,025 mm 0 W/m 6,0 C 7,8 C 6,1 km/h (2 Bft)
25/12/2007 08:00 8,2 C 85 % 1021,7 hPa 0,0 l/m 5,2 km/h (1 Bft) O-NO 0,00 h 0,000 mm 26 W/m 5,8 C 7,7 C 7,6 km/h (2 Bft)
25/12/2007 09:00 8,4 C 84 % 1021,8 hPa 0,0 l/m 7,5 km/h (2 Bft) O-NO 0,00 h 0,025 mm 63 W/m 5,8 C 7,3 C 10,1 km/h (2 Bft)
25/12/2007 10:00 9,7 C 81 % 1022,1 hPa 0,0 l/m 3,4 km/h (1 Bft) NO 0,00 h 0,051 mm 115 W/m 6,7 C 9,6 C 5,3 km/h (1 Bft)
25/12/2007 11:00 10,9 C 78 % 1021,7 hPa 0,0 l/m 1,3 km/h (1 Bft) NO 0,03 h 0,051 mm 153 W/m 7,2 C 10,9 C 2,3 km/h (1 Bft)
25/12/2007 12:00 11,7 C 80 % 1021,2 hPa 0,0 l/m 2,9 km/h (1 Bft) NO 0,00 h 0,076 mm 176 W/m 8,4 C 11,7 C 4,7 km/h (1 Bft)
25/12/2007 13:00 11,8 C 78 % 1020,5 hPa 0,0 l/m 9,0 km/h (2 Bft) SO 0,00 h 0,102 mm 147 W/m 8,1 C 11,8 C 11,7 km/h (2 Bft)
25/12/2007 14:00 12,0 C 75 % 1020,2 hPa 0,0 l/m 9,7 km/h (2 Bft) S-SO 0,38 h 0,102 mm 165 W/m 7,6 C 12,0 C 12,8 km/h (3 Bft)
25/12/2007 15:00 11,7 C 73 % 1020,1 hPa 0,0 l/m 7,3 km/h (2 Bft) SO 0,00 h 0,127 mm 68 W/m 7,1 C 11,7 C 9,6 km/h (2 Bft)
25/12/2007 16:00 11,1 C 77 % 1020,1 hPa 0,0 l/m 2,7 km/h (1 Bft) S 0,00 h 0,051 mm 16 W/m 7,2 C 11,1 C 4,3 km/h (1 Bft)
25/12/2007 17:00 10,5 C 82 % 1020,2 hPa 0,0 l/m 0,2 km/h (0 Bft) S-SO 0,00 h 0,025 mm 0 W/m 7,5 C 10,5 C 0,7 km/h (0 Bft)
25/12/2007 18:00 10,3 C 86 % 1020,5 hPa 0,0 l/m 0,1 km/h (0 Bft) S-SO 0,00 h 0,000 mm 0 W/m 8,0 C 10,3 C 0,3 km/h (0 Bft)
25/12/2007 19:00 10,1 C 87 % 1020,6 hPa 0,0 l/m 0,0 km/h (0 Bft) S-SO 0,00 h 0,025 mm 0 W/m 8,0 C 10,1 C 0,1 km/h (0 Bft)
25/12/2007 20:00 10,1 C 88 % 1020,6 hPa 0,0 l/m 0,7 km/h (0 Bft) S-SO 0,00 h 0,025 mm 0 W/m 8,2 C 10,1 C 1,3 km/h (1 Bft)
25/12/2007 21:00 9,9 C 89 % 1020,6 hPa 0,0 l/m 3,2 km/h (1 Bft) SO 0,00 h 0,025 mm 0 W/m 8,2 C 9,9 C 4,7 km/h (1 Bft)
25/12/2007 22:00 9,8 C 89 % 1020,6 hPa 0,0 l/m 1,0 km/h (0 Bft) SO 0,00 h 0,025 mm 0 W/m 8,1 C 9,8 C 1,7 km/h (1 Bft)
25/12/2007 23:00 9,7 C 90 % 1020,7 hPa 0,0 l/m 0,2 km/h (0 Bft) SO 0,00 h 0,000 mm 0 W/m 8,2 C 9,7 C 0,3 km/h (0 Bft)
26/12/2007 00:00 9,1 C 90 % 1020,7 hPa 0,0 l/m 1,0 km/h (0 Bft) N 0,00 h 0,000 mm 0 W/m 7,6 C 9,1 C 2,2 km/h (1 Bft)
26/12/2007 01:00 8,9 C 91 % 1020,6 hPa 0,0 l/m 1,1 km/h (1 Bft) N 0,00 h 0,000 mm 0 W/m 7,5 C 8,9 C 2,8 km/h (1 Bft)
26/12/2007 02:00 8,7 C 90 % 1021,0 hPa 0,0 l/m 2,5 km/h (1 Bft) N-NE 0,00 h 0,000 mm 0 W/m 7,3 C 8,7 C 4,4 km/h (1 Bft)
26/12/2007 03:00 8,8 C 89 % 1021,1 hPa 0,0 l/m 4,3 km/h (1 Bft) NE 0,00 h 0,025 mm 0 W/m 7,1 C 8,4 C 6,6 km/h (2 Bft)
26/12/2007 04:00 9,0 C 90 % 1021,2 hPa 0,0 l/m 5,4 km/h (1 Bft) NE 0,00 h 0,025 mm 0 W/m 7,4 C 8,5 C 7,8 km/h (2 Bft)
26/12/2007 05:00 8,9 C 91 % 1021,3 hPa 0,0 l/m 4,3 km/h (1 Bft) NE 0,00 h 0,025 mm 0 W/m 7,5 C 8,6 C 6,3 km/h (2 Bft)
26/12/2007 06:00 8,7 C 92 % 1021,7 hPa 0,0 l/m 3,1 km/h (1 Bft) NE 0,00 h 0,025 mm 0 W/m 7,4 C 8,5 C 4,8 km/h (1 Bft)
26/12/2007 07:00 8,4 C 92 % 1022,3 hPa 0,0 l/m 1,8 km/h (1 Bft) NE 0,00 h 0,000 mm 0 W/m 7,2 C 8,4 C 4,0 km/h (1 Bft)
26/12/2007 08:00 8,2 C 93 % 1022,8 hPa 0,0 l/m 0,3 km/h (0 Bft) NE 0,00 h 0,000 mm 5 W/m 7,1 C 8,2 C 0,7 km/h (0 Bft)
26/12/2007 09:00 8,3 C 93 % 1023,4 hPa 0,0 l/m 1,5 km/h (1 Bft) NE 0,00 h 0,000 mm 14 W/m 7,2 C 8,3 C 2,6 km/h (1 Bft)
26/12/2007 10:00 8,4 C 92 % 1024,1 hPa 0,0 l/m 1,9 km/h (1 Bft) N 0,00 h 0,000 mm 28 W/m 7,2 C 8,4 C 3,1 km/h (1 Bft)
26/12/2007 11:00 8,5 C 92 % 1024,2 hPa 0,0 l/m 2,5 km/h (1 Bft) N 0,00 h 0,025 mm 34 W/m 7,3 C 8,4 C 3,8 km/h (1 Bft)
26/12/2007 12:00 8,6 C 92 % 1024,1 hPa 0,0 l/m 5,8 km/h (2 Bft) O-NO 0,00 h 0,025 mm 36 W/m 7,4 C 7,9 C 7,7 km/h (2 Bft)
26/12/2007 13:00 8,7 C 92 % 1023,8 hPa 0,0 l/m 5,3 km/h (1 Bft) NO 0,00 h 0,025 mm 41 W/m 7,5 C 8,2 C 7,5 km/h (2 Bft)
26/12/2007 14:00 8,9 C 92 % 1023,9 hPa 0,0 l/m 2,8 km/h (1 Bft) O-NO 0,00 h 0,025 mm 38 W/m 7,6 C 8,8 C 4,6 km/h (1 Bft)
26/12/2007 15:00 9,0 C 91 % 1024,2 hPa 0,0 l/m 2,0 km/h (1 Bft) O 0,00 h 0,025 mm 17 W/m 7,6 C 9,0 C 3,5 km/h (1 Bft)
26/12/2007 16:00 8,7 C 90 % 1024,6 hPa 0,0 l/m 3,4 km/h (1 Bft) O 0,00 h 0,025 mm 8 W/m 7,2 C 8,6 C 5,0 km/h (1 Bft)
26/12/2007 17:00 8,4 C 89 % 1025,0 hPa 0,0 l/m 3,9 km/h (1 Bft) O 0,00 h 0,000 mm 0 W/m 6,8 C 8,2 C 5,3 km/h (1 Bft)
26/12/2007 18:00 8,4 C 89 % 1025,3 hPa 0,0 l/m 4,0 km/h (1 Bft) O 0,00 h 0,000 mm 0 W/m 6,6 C 8,1 C 5,9 km/h (2 Bft)
26/12/2007 19:00 8,3 C 87 % 1025,8 hPa 0,0 l/m 3,4 km/h (1 Bft) O-NO 0,00 h 0,025 mm 0 W/m 6,3 C 8,1 C 5,1 km/h (1 Bft)
26/12/2007 20:00 8,4 C 85 % 1026,0 hPa 0,0 l/m 2,2 km/h (1 Bft) O-NO 0,00 h 0,025 mm 0 W/m 6,0 C 8,4 C 3,8 km/h (1 Bft)
26/12/2007 21:00 8,4 C 83 % 1026,4 hPa 0,0 l/m 2,3 km/h (1 Bft) O-NO 0,00 h 0,025 mm 0 W/m 5,6 C 8,3 C 4,3 km/h (1 Bft)
26/12/2007 22:00 7,7 C 84 % 1026,6 hPa 0,0 l/m 2,8 km/h (1 Bft) O-NO 0,00 h 0,025 mm 0 W/m 5,2 C 7,7 C 4,7 km/h (1 Bft)
26/12/2007 23:00 7,3 C 86 % 1027,0 hPa 0,0 l/m 4,1 km/h (1 Bft) O-NO 0,00 h 0,025 mm 0 W/m 5,0 C 6,9 C 5,7 km/h (1 Bft)
27/12/2007 00:00 6,6 C 88 % 1026,9 hPa 0,0 l/m 5,7 km/h (1 Bft) O-NO 0,00 h 0,025 mm 0 W/m 4,7 C 5,7 C 8,6 km/h (2 Bft)
27/12/2007 01:00 6,3 C 89 % 1026,7 hPa 0,0 l/m 7,5 km/h (2 Bft) O-NO 0,00 h 0,025 mm 0 W/m 4,6 C 4,8 C 10,5 km/h (2 Bft)
27/12/2007 02:00 5,8 C 88 % 1027,1 hPa 0,0 l/m 7,4 km/h (2 Bft) O-NO 0,00 h 0,025 mm 0 W/m 4,0 C 4,3 C 10,2 km/h (2 Bft)
27/12/2007 03:00 5,7 C 86 % 1027,2 hPa 0,0 l/m 6,8 km/h (2 Bft) O-NO 0,00 h 0,025 mm 0 W/m 3,5 C 4,3 C 9,3 km/h (2 Bft)
27/12/2007 04:00 5,5 C 85 % 1027,2 hPa 0,0 l/m 5,7 km/h (1 Bft) O-NO 0,00 h 0,025 mm 0 W/m 3,2 C 4,4 C 8,4 km/h (2 Bft)
27/12/2007 05:00 5,2 C 83 % 1027,2 hPa 0,0 l/m 4,6 km/h (1 Bft) O-NO 0,00 h 0,025 mm 0 W/m 2,6 C 4,5 C 6,3 km/h (2 Bft)
27/12/2007 06:00 5,1 C 83 % 1027,2 hPa 0,0 l/m 3,9 km/h (1 Bft) NO 0,00 h 0,025 mm 0 W/m 2,5 C 4,8 C 5,3 km/h (1 Bft)
27/12/2007 07:00 5,2 C 82 % 1027,7 hPa 0,0 l/m 4,3 km/h (1 Bft) NO 0,00 h 0,025 mm 0 W/m 2,3 C 4,6 C 5,5 km/h (1 Bft)
27/12/2007 08:00 5,7 C 79 % 1028,2 hPa 0,0 l/m 4,5 km/h (1 Bft) O-NO 0,68 h 0,000 mm 42 W/m 2,4 C 5,1 C 5,8 km/h (2 Bft)
27/12/2007 09:00 7,9 C 69 % 1028,7 hPa 0,0 l/m 1,3 km/h (1 Bft) O-NO 1,00 h 0,025 mm 160 W/m 2,6 C 7,9 C 2,8 km/h (1 Bft)
27/12/2007 10:00 9,2 C 64 % 1029,2 hPa 0,0 l/m 0,0 km/h (0 Bft) N 1,00 h 0,076 mm 269 W/m 2,8 C 9,2 C 0,5 km/h (0 Bft)
27/12/2007 11:00 11,9 C 62 % 1029,1 hPa 0,0 l/m 1,0 km/h (0 Bft) O-NO 1,00 h 0,127 mm 342 W/m 4,8 C 11,9 C 2,6 km/h (1 Bft)
27/12/2007 12:00 13,3 C 46 % 1028,5 hPa 0,0 l/m 2,7 km/h (1 Bft) S-SO 1,00 h 0,178 mm 372 W/m 1,7 C 13,3 C 4,9 km/h (1 Bft)
27/12/2007 13:00 13,8 C 41 % 1028,1 hPa 0,0 l/m 6,1 km/h (2 Bft) S-SO 1,00 h 0,203 mm 348 W/m 0,9 C 13,8 C 8,8 km/h (2 Bft)
27/12/2007 14:00 13,9 C 38 % 1027,6 hPa 0,0 l/m 6,5 km/h (2 Bft) S 1,00 h 0,229 mm 276 W/m -0,2 C 13,9 C 8,9 km/h (2 Bft)
27/12/2007 15:00 13,1 C 43 % 1027,6 hPa 0,0 l/m 6,2 km/h (2 Bft) S-SE 1,00 h 0,203 mm 165 W/m 0,7 C 13,1 C 8,4 km/h (2 Bft)
27/12/2007 16:00 11,6 C 49 % 1027,9 hPa 0,0 l/m 3,4 km/h (1 Bft) S-SE 0,83 h 0,127 mm 46 W/m 1,2 C 11,6 C 5,2 km/h (1 Bft)
27/12/2007 17:00 9,3 C 59 % 1028,3 hPa 0,0 l/m 2,4 km/h (1 Bft) S-SE 0,00 h 0,051 mm 5 W/m 1,6 C 9,2 C 3,6 km/h (1 Bft)
27/12/2007 18:00 7,9 C 59 % 1028,8 hPa 0,0 l/m 5,5 km/h (1 Bft) O-NO 0,00 h 0,025 mm 0 W/m 0,4 C 7,2 C 6,8 km/h (2 Bft)
27/12/2007 19:00 6,9 C 60 % 1029,0 hPa 0,0 l/m 5,4 km/h (1 Bft) O-NO 0,00 h 0,051 mm 0 W/m -0,4 C 6,1 C 7,9 km/h (2 Bft)
27/12/2007 20:00 6,8 C 59 % 1028,9 hPa 0,0 l/m 4,3 km/h (1 Bft) O-NO 0,00 h 0,051 mm 0 W/m -0,6 C 6,3 C 6,0 km/h (2 Bft)
27/12/2007 21:00 6,9 C 58 % 1029,2 hPa 0,0 l/m 2,2 km/h (1 Bft) O-NO 0,00 h 0,051 mm 0 W/m -0,8 C 6,8 C 3,1 km/h (1 Bft)
27/12/2007 22:00 7,0 C 59 % 1029,1 hPa 0,0 l/m 5,2 km/h (1 Bft) O-NO 0,00 h 0,025 mm 0 W/m -0,5 C 6,3 C 6,5 km/h (2 Bft)
27/12/2007 23:00 6,4 C 60 % 1029,2 hPa 0,0 l/m 4,1 km/h (1 Bft) O-NO 0,00 h 0,051 mm 0 W/m -0,8 C 6,0 C 6,1 km/h (2 Bft)
28/12/2007 00:00 6,7 C 60 % 1029,1 hPa 0,0 l/m 4,6 km/h (1 Bft) O-NO 0,00 h 0,051 mm 0 W/m -0,5 C 6,1 C 6,1 km/h (2 Bft)
28/12/2007 01:00 6,7 C 61 % 1028,9 hPa 0,0 l/m 3,1 km/h (1 Bft) O-NO 0,00 h 0,051 mm 0 W/m -0,3 C 6,5 C 4,3 km/h (1 Bft)
28/12/2007 02:00 6,8 C 61 % 1029,0 hPa 0,0 l/m 4,3 km/h (1 Bft) O-NO 0,00 h 0,025 mm 0 W/m -0,2 C 6,3 C 5,7 km/h (1 Bft)
28/12/2007 03:00 6,4 C 61 % 1029,1 hPa 0,0 l/m 5,3 km/h (1 Bft) O-NO 0,00 h 0,051 mm 0 W/m -0,5 C 5,6 C 6,7 km/h (2 Bft)
28/12/2007 04:00 5,7 C 60 % 1029,3 hPa 0,0 l/m 5,7 km/h (1 Bft) NO 0,00 h 0,051 mm 0 W/m -1,5 C 4,6 C 8,1 km/h (2 Bft)
28/12/2007 05:00 5,5 C 58 % 1029,1 hPa 0,0 l/m 7,0 km/h (2 Bft) O-NO 0,00 h 0,051 mm 0 W/m -2,1 C 4,0 C 10,2 km/h (2 Bft)
28/12/2007 06:00 5,8 C 54 % 1029,0 hPa 0,0 l/m 7,5 km/h (2 Bft) O-NO 0,00 h 0,051 mm 0 W/m -2,7 C 4,2 C 10,7 km/h (2 Bft)
28/12/2007 07:00 5,7 C 55 % 1029,0 hPa 0,0 l/m 8,8 km/h (2 Bft) O-NO 0,00 h 0,051 mm 5 W/m -2,7 C 3,8 C 12,2 km/h (2 Bft)
28/12/2007 08:00 6,3 C 51 % 1029,2 hPa 0,0 l/m 9,0 km/h (2 Bft) O-NO 0,73 h 0,051 mm 39 W/m -3,2 C 4,5 C 12,6 km/h (3 Bft)
28/12/2007 09:00 8,0 C 47 % 1029,5 hPa 0,0 l/m 4,5 km/h (1 Bft) N-NO 1,00 h 0,076 mm 158 W/m -2,5 C 7,7 C 6,2 km/h (2 Bft)
28/12/2007 10:00 11,0 C 45 % 1029,7 hPa 0,0 l/m 4,5 km/h (1 Bft) O-NO 1,00 h 0,102 mm 268 W/m -0,4 C 11,0 C 6,9 km/h (2 Bft)
28/12/2007 11:00 12,4 C 46 % 1029,6 hPa 0,0 l/m 7,9 km/h (2 Bft) SO 1,00 h 0,152 mm 344 W/m 1,3 C 12,4 C 11,4 km/h (2 Bft)
28/12/2007 12:00 12,5 C 50 % 1029,2 hPa 0,0 l/m 11,2 km/h (2 Bft) S-SO 1,00 h 0,229 mm 367 W/m 2,4 C 12,5 C 16,2 km/h (3 Bft)
28/12/2007 13:00 12,6 C 55 % 1028,7 hPa 0,0 l/m 10,4 km/h (2 Bft) S 1,00 h 0,254 mm 341 W/m 3,9 C 12,6 C 14,8 km/h (3 Bft)
28/12/2007 14:00 12,5 C 55 % 1028,4 hPa 0,0 l/m 8,2 km/h (2 Bft) S-SE 1,00 h 0,229 mm 269 W/m 3,8 C 12,5 C 11,6 km/h (2 Bft)
28/12/2007 15:00 11,8 C 59 % 1028,4 hPa 0,0 l/m 8,3 km/h (2 Bft) S 1,00 h 0,178 mm 161 W/m 3,9 C 11,8 C 11,3 km/h (2 Bft)
28/12/2007 16:00 11,0 C 63 % 1028,6 hPa 0,0 l/m 2,9 km/h (1 Bft) S-SO 0,67 h 0,127 mm 44 W/m 4,1 C 11,0 C 4,4 km/h (1 Bft)
28/12/2007 17:00 9,1 C 67 % 1028,8 hPa 0,0 l/m 2,5 km/h (1 Bft) S-SO 0,00 h 0,051 mm 5 W/m 3,3 C 9,0 C 3,8 km/h (1 Bft)
28/12/2007 18:00 7,7 C 72 % 1029,1 hPa 0,0 l/m 5,8 km/h (2 Bft) O-NO 0,00 h 0,025 mm 0 W/m 2,9 C 6,9 C 8,2 km/h (2 Bft)
Min-Date _ 27/12/07 27/12/07 25/12/07 - 24/12/07 - - - - 28/12/07 28/12/07 24/12/07
_ Min-Heure 06:11 14:26 14:45 - 00:27 - - - - 08:14 04:59 00:27
Minimum _ 4,9 C 34 % 1020,0 hPa - 0,0 km/h (0 Bft) - - - - -3,5 C 3,0 C 0,0 km/h (0 Bft)
Max-Date _ 27/12/07 24/12/07 28/12/07 24/12/07 28/12/07 - 24/12/07 28/12/07 27/12/07 24/12/07 27/12/07 28/12/07
_ Max-Heure 13:39 07:30 10:45 03:06 12:15 - 13:53 13:00 12:28 12:31 13:39 12:15
Maximum _ 14,1 C 96 % 1029,8 hPa 1,0 l/m 17,7 km/h
S-SO (3 Bft)
- 0,02 h 0,254 mm 376 W/m 9,3 C 14,1 C 24,1 km/h
S-SO (4 Bft)
Moyenne _ 8,9 C 78 % 1024,6 hPa #3,8 l/m 3,9 km/h (1 Bft) O-NO #20:05 h #5,395 mm 125 W/m 5,0 C 8,6 C 5,7 km/h (1 Bft)
Roquefort les pins